Time;durP1;ratioP1;P1;durP2;ratioP2;P2;SDS_P1;SDS_P2;PMS_P1;PMS_P2;Temp;Humidity;BMP_temperature;BMP_pressure;BME280_temperature;BME280_humidity;BME280_pressure;Samples;Min_cycle;Max_cycle;Signal;HPM_P1;HPM_P2
2023/05/28 00:01:38;;;;;;;6.32;5.18;;;16.30;48.40;;;;;;4992145;28;20593;-50
2023/05/28 00:04:05;;;;;;;6.30;4.30;;;16.30;48.60;;;;;;5005284;28;20505;-50
2023/05/28 00:06:38;;;;;;;4.80;4.28;;;16.20;48.60;;;;;;4995267;28;20056;-49
2023/05/28 00:09:05;;;;;;;4.30;3.90;;;16.20;48.60;;;;;;5004204;28;20061;-47
2023/05/28 00:11:31;;;;;;;5.85;3.72;;;16.10;48.60;;;;;;4999732;28;20068;-49
2023/05/28 00:14:03;;;;;;;5.60;4.07;;;16.10;48.80;;;;;;5009916;28;20065;-49
2023/05/28 00:16:35;;;;;;;4.90;4.15;;;16.10;48.80;;;;;;4991819;28;20406;-46
2023/05/28 00:19:04;;;;;;;4.55;4.00;;;16.00;49.00;;;;;;4992561;28;20049;-50
2023/05/28 00:21:36;;;;;;;3.92;3.47;;;16.00;48.90;;;;;;5002416;28;20074;-47
2023/05/28 00:24:06;;;;;;;4.03;3.30;;;15.90;48.80;;;;;;5010790;28;20161;-51
2023/05/28 00:26:32;;;;;;;5.32;3.58;;;15.90;48.80;;;;;;4998104;28;20066;-48
2023/05/28 00:29:05;;;;;;;4.45;4.05;;;15.80;48.80;;;;;;5008820;28;20030;-50
2023/05/28 00:31:31;;;;;;;4.22;3.83;;;15.80;49.00;;;;;;5000675;28;20121;-47
2023/05/28 00:34:01;;;;;;;4.95;4.20;;;15.70;48.90;;;;;;4991073;28;20042;-48
2023/05/28 00:36:28;;;;;;;4.72;3.47;;;15.70;49.10;;;;;;4991238;28;20126;-46
2023/05/28 00:39:04;;;;;;;5.75;3.80;;;15.60;49.20;;;;;;5008607;28;20066;-48
2023/05/28 00:41:35;;;;;;;6.32;4.30;;;15.60;49.20;;;;;;4991519;28;20047;-51
2023/05/28 00:44:03;;;;;;;6.22;4.45;;;15.60;49.30;;;;;;4991734;28;20668;-47
2023/05/28 00:46:32;;;;;;;4.72;3.90;;;15.50;49.40;;;;;;4989911;28;20074;-45
2023/05/28 00:48:59;;;;;;;4.57;3.88;;;15.50;49.60;;;;;;5007537;28;20406;-51
2023/05/28 00:51:28;;;;;;;5.93;4.28;;;15.40;49.70;;;;;;4989408;28;20051;-48
2023/05/28 00:53:59;;;;;;;6.07;4.38;;;15.40;49.70;;;;;;4993784;28;20730;-50
2023/05/28 00:56:29;;;;;;;4.18;3.70;;;15.40;50.00;;;;;;4998067;28;20653;-48
2023/05/28 00:58:56;;;;;;;5.07;3.65;;;15.40;49.70;;;;;;4991350;28;20121;-50
2023/05/28 01:01:26;;;;;;;4.32;3.78;;;15.30;49.60;;;;;;4991157;28;20049;-49
2023/05/28 01:03:55;;;;;;;4.35;3.90;;;15.30;49.80;;;;;;4997117;28;20084;-49
2023/05/28 01:06:28;;;;;;;5.22;3.70;;;15.20;49.50;;;;;;4992372;28;20050;-50
2023/05/28 01:08:57;;;;;;;5.50;3.65;;;15.20;49.80;;;;;;4993982;28;20038;-48
2023/05/28 01:11:27;;;;;;;5.05;3.92;;;15.20;49.80;;;;;;4990934;28;20038;-50
2023/05/28 01:13:57;;;;;;;6.60;3.95;;;15.10;49.90;;;;;;5008227;28;20101;-49
2023/05/28 01:16:27;;;;;;;5.38;4.10;;;15.10;50.00;;;;;;4997055;28;20511;-49
2023/05/28 01:18:56;;;;;;;4.60;4.07;;;15.00;50.10;;;;;;4989847;28;20042;-50
2023/05/28 01:21:30;;;;;;;6.28;4.30;;;15.00;50.20;;;;;;5002936;28;20506;-50
2023/05/28 01:24:04;;;;;;;4.70;4.15;;;15.00;50.60;;;;;;5007195;28;20433;-50
2023/05/28 01:26:38;;;;;;;5.10;3.70;;;14.90;50.50;;;;;;4988886;28;20434;-50
2023/05/28 01:29:19;;;;;;;4.00;3.60;;;14.90;50.20;;;;;;4997389;28;20510;-50
2023/05/28 01:31:51;;;;;;;4.28;3.72;;;14.90;50.90;;;;;;4999954;28;20052;-48
2023/05/28 01:34:22;;;;;;;5.00;3.47;;;14.80;50.10;;;;;;4995132;28;20506;-48
2023/05/28 01:37:01;;;;;;;4.83;4.00;;;14.80;50.50;;;;;;4993033;28;20042;-48
2023/05/28 01:39:36;;;;;;;3.95;3.65;;;14.70;50.80;;;;;;4983211;28;20046;-49
2023/05/28 01:42:06;;;;;;;5.80;4.05;;;14.70;50.60;;;;;;5011740;28;20403;-49
2023/05/28 01:44:38;;;;;;;4.10;3.80;;;14.70;50.60;;;;;;4990095;28;20042;-50
2023/05/28 01:47:07;;;;;;;4.93;3.85;;;14.60;50.40;;;;;;4988301;28;20043;-49
2023/05/28 01:49:44;;;;;;;4.30;3.90;;;14.60;50.70;;;;;;4994712;28;20049;-47
2023/05/28 01:52:14;;;;;;;4.57;4.07;;;14.60;50.80;;;;;;5004809;28;20054;-48
2023/05/28 01:54:41;;;;;;;4.35;3.35;;;14.50;50.60;;;;;;4985563;28;20038;-50
2023/05/28 01:57:10;;;;;;;4.90;3.55;;;14.50;50.70;;;;;;4987687;28;20050;-47
2023/05/28 01:59:37;;;;;;;5.63;4.20;;;14.50;50.80;;;;;;4992890;28;20428;-47
2023/05/28 02:02:08;;;;;;;4.97;3.67;;;14.40;50.70;;;;;;4991484;28;20034;-51
2023/05/28 02:04:35;;;;;;;4.97;3.88;;;14.40;50.80;;;;;;5013041;28;20030;-47
2023/05/28 02:07:03;;;;;;;4.55;3.60;;;14.40;50.70;;;;;;5004190;28;20051;-50
2023/05/28 02:09:33;;;;;;;5.82;4.15;;;14.30;50.80;;;;;;4989218;28;20529;-46
2023/05/28 02:12:02;;;;;;;7.05;3.92;;;14.30;51.00;;;;;;4983760;28;20052;-49
2023/05/28 02:14:29;;;;;;;3.85;3.30;;;14.20;50.70;;;;;;4998429;28;20104;-47
2023/05/28 02:17:09;;;;;;;4.80;4.13;;;14.20;50.80;;;;;;5007084;28;20522;-47
2023/05/28 02:19:39;;;;;;;6.05;3.90;;;14.20;51.60;;;;;;4992658;28;20052;-49
2023/05/28 02:22:11;;;;;;;4.90;4.40;;;14.10;50.90;;;;;;4987939;28;20502;-50
2023/05/28 02:24:40;;;;;;;4.10;3.70;;;14.10;50.90;;;;;;5003837;28;20544;-48
2023/05/28 02:27:07;;;;;;;5.55;3.60;;;14.10;51.00;;;;;;4992624;28;20145;-50
2023/05/28 02:29:36;;;;;;;6.53;3.58;;;14.00;51.10;;;;;;5001597;28;20483;-48
2023/05/28 02:32:06;;;;;;;4.40;3.78;;;13.90;51.20;;;;;;4988215;28;20415;-46
2023/05/28 02:34:33;;;;;;;6.82;3.88;;;13.90;51.30;;;;;;4989904;28;20411;-47
2023/05/28 02:37:03;;;;;;;4.50;3.55;;;13.90;51.40;;;;;;5000283;28;20133;-50
2023/05/28 02:39:37;;;;;;;5.20;4.20;;;13.90;51.70;;;;;;4989196;28;20164;-52
2023/05/28 02:42:05;;;;;;;4.13;3.72;;;13.90;51.80;;;;;;4988437;28;20038;-48
2023/05/28 02:44:32;;;;;;;4.43;4.07;;;13.80;51.70;;;;;;5005004;28;20030;-48
2023/05/28 02:47:00;;;;;;;4.22;3.85;;;13.80;51.80;;;;;;5004120;28;20108;-50
2023/05/28 02:49:27;;;;;;;7.55;4.25;;;13.80;51.80;;;;;;4987771;28;20491;-47
2023/05/28 02:51:57;;;;;;;4.88;3.45;;;13.80;51.80;;;;;;4987349;28;20133;-51
2023/05/28 02:54:27;;;;;;;5.90;3.40;;;13.70;52.20;;;;;;4988989;28;20038;-51
2023/05/28 02:56:54;;;;;;;4.82;3.60;;;13.70;51.90;;;;;;4995929;28;20069;-51
2023/05/28 02:59:26;;;;;;;4.57;3.75;;;13.70;52.00;;;;;;4985008;28;20402;-51
2023/05/28 03:01:54;;;;;;;5.72;4.45;;;13.70;52.00;;;;;;4994541;28;20132;-52
2023/05/28 03:04:23;;;;;;;5.55;3.75;;;13.60;52.00;;;;;;5016743;28;20058;-48
2023/05/28 03:06:50;;;;;;;5.88;3.50;;;13.60;52.30;;;;;;4991477;28;20042;-51
2023/05/28 03:09:17;;;;;;;5.32;4.50;;;13.60;52.20;;;;;;4992873;28;20039;-48
2023/05/28 03:11:48;;;;;;;4.55;4.15;;;13.60;52.20;;;;;;4992849;28;20498;-47
2023/05/28 03:14:17;;;;;;;5.38;4.03;;;13.60;52.20;;;;;;5008996;28;20093;-51
2023/05/28 03:16:45;;;;;;;8.27;4.45;;;13.60;52.40;;;;;;4995162;28;20038;-49
2023/05/28 03:19:22;;;;;;;5.75;4.57;;;13.50;52.40;;;;;;4992863;28;20100;-51
2023/05/28 03:21:55;;;;;;;8.35;5.03;;;13.50;52.70;;;;;;4988223;28;20767;-48
2023/05/28 03:24:29;;;;;;;5.88;4.80;;;13.50;53.00;;;;;;5006017;28;20046;-48
2023/05/28 03:27:02;;;;;;;6.18;4.88;;;13.50;52.90;;;;;;5009095;28;20623;-50
2023/05/28 03:29:31;;;;;;;6.75;4.53;;;13.50;52.90;;;;;;5005918;28;20045;-52
2023/05/28 03:32:04;;;;;;;5.75;4.53;;;13.50;52.90;;;;;;4994184;28;20050;-49
2023/05/28 03:34:31;;;;;;;6.43;5.35;;;13.50;52.90;;;;;;4992128;28;20104;-47
2023/05/28 03:36:58;;;;;;;8.25;4.60;;;13.50;53.00;;;;;;4994546;28;20502;-51
2023/05/28 03:39:30;;;;;;;6.60;5.13;;;13.40;52.90;;;;;;5007395;28;20045;-51
2023/05/28 03:41:59;;;;;;;6.80;4.65;;;13.40;53.00;;;;;;4994743;28;20042;-51
2023/05/28 03:44:28;;;;;;;5.97;4.60;;;13.40;53.00;;;;;;4996009;28;20474;-51
2023/05/28 03:47:00;;;;;;;;;;;13.40;53.10;;;;;;4995155;28;20046;-51
2023/05/28 03:49:33;;;;;;;4.88;4.20;;;13.50;53.00;;;;;;5009119;28;19925;-50
2023/05/28 03:52:12;;;;;;;6.63;4.97;;;13.40;52.60;;;;;;4991825;28;20069;-49
2023/05/28 03:54:48;;;;;;;5.25;4.65;;;13.40;53.00;;;;;;4992593;28;20104;-51
2023/05/28 03:57:20;;;;;;;6.53;4.43;;;13.40;53.30;;;;;;5006720;28;20054;-47
2023/05/28 03:59:47;;;;;;;5.95;4.53;;;13.40;53.60;;;;;;5033168;23;20049;-45
2023/05/28 04:02:16;;;;;;;7.03;4.70;;;13.40;53.70;;;;;;5030644;28;20095;-42
2023/05/28 04:04:45;;;;;;;6.63;4.97;;;13.40;53.70;;;;;;5034639;28;20056;-42
2023/05/28 04:07:14;;;;;;;6.40;5.07;;;13.40;53.70;;;;;;5049681;28;20045;-41
2023/05/28 04:09:43;;;;;;;4.82;4.32;;;13.50;53.80;;;;;;5031241;28;20129;-41
2023/05/28 04:12:15;;;;;;;4.70;4.18;;;13.50;53.80;;;;;;4998632;28;20056;-43
2023/05/28 04:14:49;;;;;;;6.33;3.90;;;13.50;54.00;;;;;;5020210;28;20449;-45
2023/05/28 04:17:20;;;;;;;5.38;4.72;;;13.40;53.80;;;;;;5028476;28;20052;-42
2023/05/28 04:19:48;;;;;;;6.68;4.93;;;13.50;54.00;;;;;;4998344;28;20418;-43
2023/05/28 04:22:17;;;;;;;5.45;4.57;;;13.50;54.10;;;;;;5013262;28;20037;-41
2023/05/28 04:24:46;;;;;;;6.82;4.90;;;13.50;54.30;;;;;;5010139;28;20041;-44
2023/05/28 04:27:20;;;;;;;5.85;4.55;;;13.50;54.40;;;;;;5029720;28;20119;-42
2023/05/28 04:29:47;;;;;;;6.15;4.15;;;13.50;54.80;;;;;;5010386;28;20072;-43
2023/05/28 04:32:16;;;;;;;7.65;4.88;;;13.50;54.70;;;;;;5030983;28;20505;-45
2023/05/28 04:34:43;;;;;;;5.63;4.47;;;13.50;55.10;;;;;;5014101;28;20045;-45
2023/05/28 04:37:15;;;;;;;6.53;4.40;;;13.60;55.30;;;;;;5013024;28;20135;-41
2023/05/28 04:39:41;;;;;;;6.95;5.35;;;13.50;55.40;;;;;;5011292;28;20382;-43
2023/05/28 04:42:09;;;;;;;5.95;5.07;;;13.60;55.70;;;;;;5015446;28;20065;-43
2023/05/28 04:44:40;;;;;;;6.07;4.53;;;13.60;55.90;;;;;;5014205;28;20128;-42
2023/05/28 04:47:11;;;;;;;8.50;5.47;;;13.70;56.50;;;;;;5012779;28;20045;-43
2023/05/28 04:49:40;;;;;;;7.60;5.60;;;13.70;56.30;;;;;;5011175;28;20044;-43
2023/05/28 04:52:11;;;;;;;6.57;5.22;;;13.70;56.20;;;;;;5015656;28;20104;-42
2023/05/28 04:54:40;;;;;;;7.53;4.60;;;13.80;56.20;;;;;;5011667;28;20045;-43
2023/05/28 04:57:11;;;;;;;6.07;5.47;;;13.80;56.40;;;;;;5012021;28;20057;-43
2023/05/28 04:59:43;;;;;;;7.20;5.77;;;13.90;56.70;;;;;;5031669;28;20091;-46
2023/05/28 05:02:12;;;;;;;7.43;5.85;;;14.00;56.90;;;;;;5012684;28;20042;-44
2023/05/28 05:04:42;;;;;;;7.10;5.68;;;14.00;56.90;;;;;;5007462;28;20037;-43
2023/05/28 05:07:10;;;;;;;8.60;5.30;;;14.10;57.10;;;;;;5028617;28;20045;-42
2023/05/28 05:09:39;;;;;;;9.05;5.95;;;14.10;57.30;;;;;;5013785;28;20041;-47
2023/05/28 05:12:09;;;;;;;7.07;6.10;;;14.20;57.50;;;;;;5030380;28;20633;-43
2023/05/28 05:14:39;;;;;;;9.85;5.88;;;14.30;58.20;;;;;;4991554;28;20152;-41
2023/05/28 05:17:10;;;;;;;8.93;6.15;;;14.30;57.90;;;;;;5012513;28;20076;-42
2023/05/28 05:19:37;;;;;;;8.73;5.72;;;14.40;58.50;;;;;;5030008;28;20558;-44
2023/05/28 05:22:04;;;;;;;10.65;6.65;;;14.50;58.30;;;;;;5009918;28;20465;-44
2023/05/28 05:24:34;;;;;;;10.15;6.43;;;14.50;59.60;;;;;;5008317;28;20434;-42
2023/05/28 05:27:01;;;;;;;10.30;7.93;;;14.60;59.90;;;;;;5029373;28;20045;-45
2023/05/28 05:29:33;;;;;;;11.43;7.18;;;14.70;59.70;;;;;;5028820;28;20037;-41
2023/05/28 05:32:00;;;;;;;10.48;7.85;;;14.80;60.30;;;;;;5029377;28;20535;-44
2023/05/28 05:34:29;;;;;;;9.73;6.93;;;14.90;59.60;;;;;;5030761;28;20041;-42
2023/05/28 05:37:18;;;;;;;15.05;8.43;;;15.00;59.70;;;;;;5028748;28;20049;-42
2023/05/28 05:40:12;;;;;;;13.02;7.53;;;15.10;59.70;;;;;;5008884;28;20100;-43
2023/05/28 05:43:06;;;;;;;15.63;8.90;;;15.20;59.40;;;;;;5015386;28;20524;-42
2023/05/28 05:45:40;;;;;;;14.50;7.78;;;15.30;59.40;;;;;;5023068;28;20124;-43
2023/05/28 05:48:09;;;;;;;11.25;6.95;;;15.40;59.30;;;;;;5029241;28;20128;-43
2023/05/28 05:50:54;;;;;;;8.95;7.05;;;15.50;59.20;;;;;;5011710;28;20038;-41
2023/05/28 05:53:26;;;;;;;12.82;7.28;;;15.60;60.70;;;;;;5012006;28;20513;-42
2023/05/28 05:56:01;;;;;;;11.35;7.45;;;15.70;59.80;;;;;;5006573;28;20071;-47
2023/05/28 05:58:28;;;;;;;13.25;7.68;;;15.80;59.30;;;;;;5028648;28;20053;-43
2023/05/28 06:00:57;;;;;;;12.35;7.32;;;15.90;59.30;;;;;;5012514;28;20053;-45
2023/05/28 06:03:24;;;;;;;12.15;7.07;;;16.00;59.20;;;;;;5009928;28;20071;-43
2023/05/28 06:06:03;;;;;;;11.13;7.10;;;16.00;59.10;;;;;;5029398;28;20053;-45
2023/05/28 06:08:59;;;;;;;12.10;6.63;;;16.10;59.00;;;;;;5017066;28;20160;-48
2023/05/28 06:11:47;;;;;;;12.52;6.82;;;16.20;58.80;;;;;;4997190;28;20520;-46
2023/05/28 06:14:15;;;;;;;12.60;6.85;;;16.30;58.60;;;;;;5026886;28;20077;-43
2023/05/28 06:16:45;;;;;;;10.43;7.65;;;16.40;58.90;;;;;;5028931;28;20083;-45
2023/05/28 06:19:12;;;;;;;12.35;7.50;;;16.40;58.70;;;;;;5010967;28;20055;-41
2023/05/28 06:21:41;;;;;;;9.82;7.00;;;16.50;58.60;;;;;;5027891;28;20038;-44
2023/05/28 06:24:11;;;;;;;12.98;7.53;;;16.60;58.30;;;;;;5026298;28;20048;-42
2023/05/28 06:26:41;;;;;;;15.88;8.00;;;16.60;58.30;;;;;;4995218;28;20037;-42
2023/05/28 06:29:10;;;;;;;10.02;7.38;;;16.70;58.30;;;;;;5006254;28;20759;-44
2023/05/28 06:31:37;;;;;;;13.27;8.18;;;16.80;58.10;;;;;;5025659;28;20540;-42
2023/05/28 06:34:04;;;;;;;11.52;7.22;;;16.80;58.10;;;;;;5015136;28;20728;-44
2023/05/28 06:36:32;;;;;;;9.73;6.88;;;16.90;58.10;;;;;;5010588;28;20804;-43
2023/05/28 06:38:59;;;;;;;10.98;7.15;;;17.00;58.20;;;;;;5002817;28;20045;-43
2023/05/28 06:41:28;;;;;;;12.52;7.03;;;17.00;57.90;;;;;;5011633;28;20068;-43
2023/05/28 06:43:55;;;;;;;15.23;8.07;;;17.10;57.90;;;;;;5030704;28;20465;-44
2023/05/28 06:46:29;;;;;;;9.65;6.40;;;17.20;57.80;;;;;;5032786;28;20139;-43
2023/05/28 06:48:56;;;;;;;12.98;7.22;;;17.30;57.80;;;;;;5007999;28;20129;-45
2023/05/28 06:51:23;;;;;;;10.65;7.40;;;17.30;57.20;;;;;;5019284;28;20041;-43
2023/05/28 06:53:51;;;;;;;7.85;6.13;;;17.40;57.10;;;;;;5004052;28;20100;-45
2023/05/28 06:56:22;;;;;;;10.07;6.75;;;17.50;57.00;;;;;;5014176;28;20136;-42
2023/05/28 06:59:09;;;;;;;9.23;6.28;;;17.50;56.70;;;;;;4999389;28;20465;-42
2023/05/28 07:01:58;;;;;;;13.25;6.50;;;17.60;56.50;;;;;;5020388;28;20103;-45
2023/05/28 07:04:50;;;;;;;11.90;6.88;;;17.70;56.10;;;;;;5004424;28;20041;-42
2023/05/28 07:07:22;;;;;;;8.18;6.00;;;17.80;55.70;;;;;;5015461;28;20072;-45
2023/05/28 07:09:49;;;;;;;10.65;6.10;;;17.90;55.30;;;;;;5006021;28;20325;-44
2023/05/28 07:12:16;;;;;;;7.80;5.55;;;17.90;55.30;;;;;;5007444;28;20041;-42
2023/05/28 07:14:48;;;;;;;8.07;5.45;;;18.00;55.30;;;;;;5014365;28;20042;-42
2023/05/28 07:17:15;;;;;;;9.20;5.85;;;18.10;55.00;;;;;;5008308;28;20547;-44
2023/05/28 07:19:43;;;;;;;8.82;6.15;;;18.20;54.90;;;;;;5006790;28;20050;-43
2023/05/28 07:22:11;;;;;;;10.75;5.82;;;18.20;54.60;;;;;;5011300;28;20045;-43
2023/05/28 07:24:39;;;;;;;7.90;5.00;;;18.30;55.00;;;;;;5021242;28;20034;-45
2023/05/28 07:27:06;;;;;;;9.57;5.25;;;18.40;54.70;;;;;;5013729;28;20042;-46
2023/05/28 07:29:33;;;;;;;9.77;5.32;;;18.50;54.30;;;;;;5008966;28;20975;-43
2023/05/28 07:32:00;;;;;;;10.05;6.22;;;18.60;54.40;;;;;;5014230;28;20083;-45
2023/05/28 07:34:31;;;;;;;10.82;5.53;;;18.60;54.50;;;;;;5013146;28;20064;-48
2023/05/28 07:36:58;;;;;;;8.38;5.63;;;18.80;54.10;;;;;;5011612;28;20119;-46
2023/05/28 07:39:25;;;;;;;11.00;5.57;;;18.80;53.70;;;;;;5029444;28;20049;-44
2023/05/28 07:41:51;;;;;;;6.47;5.38;;;18.90;53.80;;;;;;5014260;28;20046;-43
2023/05/28 07:44:30;;;;;;;9.02;5.18;;;19.00;53.40;;;;;;5013491;28;20808;-43
2023/05/28 07:46:56;;;;;;;7.15;5.03;;;19.10;52.90;;;;;;5012185;28;20065;-46
2023/05/28 07:50:00;;;;;;;8.57;5.88;;;19.10;52.80;;;;;;5008798;28;20072;-46
2023/05/28 07:52:47;;;;;;;10.63;5.32;;;19.30;53.00;;;;;;5012891;28;20046;-43
2023/05/28 07:55:15;;;;;;;10.75;6.32;;;19.30;53.00;;;;;;5009304;28;20119;-44
2023/05/28 07:57:41;;;;;;;9.07;6.00;;;19.40;53.00;;;;;;5007045;28;20601;-44
2023/05/28 08:00:16;;;;;;;9.80;5.53;;;19.40;52.80;;;;;;5029658;28;20561;-41
2023/05/28 08:02:52;;;;;;;9.57;5.63;;;19.50;53.00;;;;;;5030158;28;20383;-42
2023/05/28 08:05:24;;;;;;;12.60;6.53;;;19.60;52.80;;;;;;5010671;28;20041;-44
2023/05/28 08:07:52;;;;;;;9.05;5.43;;;19.70;52.80;;;;;;5014219;28;20589;-45
2023/05/28 08:10:19;;;;;;;6.57;4.80;;;19.70;52.00;;;;;;5008047;28;20073;-42
2023/05/28 08:12:46;;;;;;;9.65;5.80;;;19.80;52.00;;;;;;5007780;28;20030;-44
2023/05/28 08:15:13;;;;;;;8.48;4.78;;;19.90;52.30;;;;;;5013062;28;20103;-42
2023/05/28 08:17:40;;;;;;;7.75;4.50;;;19.90;51.50;;;;;;5006947;28;20046;-43
2023/05/28 08:20:11;;;;;;;7.55;4.55;;;20.00;50.80;;;;;;5007016;28;20045;-42
2023/05/28 08:22:46;;;;;;;8.05;4.80;;;20.10;50.50;;;;;;5029101;28;20103;-43
2023/05/28 08:25:15;;;;;;;8.50;5.45;;;20.20;50.50;;;;;;5009453;28;20170;-43
2023/05/28 08:27:43;;;;;;;8.20;4.93;;;20.20;50.60;;;;;;5010327;28;20044;-45
2023/05/28 08:30:10;;;;;;;10.93;5.18;;;20.30;51.20;;;;;;5007688;28;20080;-48
2023/05/28 08:32:44;;;;;;;8.52;5.20;;;20.40;50.80;;;;;;5005784;28;20553;-45
2023/05/28 08:35:12;;;;;;;8.82;5.40;;;20.40;50.10;;;;;;5012541;28;20121;-44
2023/05/28 08:37:39;;;;;;;7.53;4.88;;;20.50;50.10;;;;;;5031517;28;20048;-48
2023/05/28 08:40:20;;;;;;;9.13;4.97;;;20.60;50.00;;;;;;5007799;28;20053;-43
2023/05/28 08:42:49;;;;;;;6.90;4.70;;;20.70;50.40;;;;;;5029657;28;20038;-46
2023/05/28 08:45:16;;;;;;;10.13;5.22;;;20.70;49.80;;;;;;5012582;28;20509;-42
2023/05/28 08:47:48;;;;;;;8.63;5.25;;;20.80;50.00;;;;;;5013987;28;20073;-45
2023/05/28 08:50:19;;;;;;;;;;;20.90;50.30;;;;;;5008574;28;20451;-44
2023/05/28 08:53:07;;;;;;;7.82;4.30;;;21.10;49.90;;;;;;5011316;28;20017;-45
2023/05/28 08:55:35;;;;;;;9.70;4.67;;;21.10;49.60;;;;;;5004729;28;20065;-44
2023/05/28 08:58:11;;;;;;;9.13;4.70;;;21.20;49.80;;;;;;5013712;28;20052;-44
2023/05/28 09:00:38;;;;;;;7.32;5.00;;;21.20;49.70;;;;;;5029570;28;20160;-45
2023/05/28 09:03:23;;;;;;;8.10;5.28;;;21.30;49.20;;;;;;5028553;28;20056;-46
2023/05/28 09:05:52;;;;;;;9.63;5.10;;;21.30;49.80;;;;;;5005240;28;20037;-45
2023/05/28 09:08:20;;;;;;;6.57;4.05;;;21.40;49.60;;;;;;5016805;28;20079;-44
2023/05/28 09:10:47;;;;;;;6.55;4.82;;;21.40;49.20;;;;;;5011266;28;20052;-44
2023/05/28 09:13:14;;;;;;;7.78;5.15;;;21.50;49.30;;;;;;5008705;28;20052;-42
2023/05/28 09:15:41;;;;;;;7.22;4.80;;;21.50;49.50;;;;;;5029114;28;20106;-43
2023/05/28 09:18:09;;;;;;;7.60;4.70;;;21.60;49.60;;;;;;5013414;28;20052;-43
2023/05/28 09:20:36;;;;;;;6.25;4.45;;;21.70;49.10;;;;;;5006946;28;20049;-48
2023/05/28 09:23:06;;;;;;;6.85;4.07;;;21.70;48.30;;;;;;4994292;28;20041;-41
2023/05/28 09:26:02;;;;;;;8.75;4.20;;;21.80;48.30;;;;;;5026673;28;20418;-45
2023/05/28 09:28:42;;;;;;;8.40;4.47;;;21.90;48.10;;;;;;5026410;28;20068;-46
2023/05/28 09:31:10;;;;;;;8.48;4.30;;;22.00;47.70;;;;;;5029239;28;20041;-45
2023/05/28 09:33:47;;;;;;;7.80;4.60;;;22.00;48.00;;;;;;5022370;28;20051;-45
2023/05/28 09:36:17;;;;;;;9.52;5.18;;;22.10;47.80;;;;;;5027662;28;20092;-44
2023/05/28 09:38:45;;;;;;;7.55;4.55;;;22.20;47.40;;;;;;5022939;28;20103;-43
2023/05/28 09:41:20;;;;;;;9.02;3.97;;;22.20;47.30;;;;;;5028790;28;20136;-43
2023/05/28 09:43:59;;;;;;;8.48;4.40;;;22.30;47.80;;;;;;5019024;28;20124;-44
2023/05/28 09:46:30;;;;;;;5.50;4.05;;;22.40;46.50;;;;;;5026504;28;20047;-45
2023/05/28 09:48:58;;;;;;;7.03;3.90;;;22.50;46.30;;;;;;5026787;28;20037;-44
2023/05/28 09:51:28;;;;;;;6.15;3.35;;;22.50;46.20;;;;;;5027170;28;20124;-43
2023/05/28 09:53:57;;;;;;;8.05;3.30;;;22.60;45.30;;;;;;5027752;28;20618;-46
2023/05/28 09:56:32;;;;;;;5.53;3.90;;;22.70;45.20;;;;;;5026563;28;20132;-44
2023/05/28 09:59:06;;;;;;;5.93;3.40;;;22.80;44.60;;;;;;5028604;28;20052;-43
2023/05/28 10:01:54;;;;;;;7.32;3.65;;;22.90;44.30;;;;;;5028314;28;20045;-44
2023/05/28 10:04:27;;;;;;;8.10;3.90;;;23.00;43.80;;;;;;5027767;28;20045;-45
2023/05/28 10:06:55;;;;;;;7.70;3.85;;;23.00;43.50;;;;;;5028361;28;20470;-43
2023/05/28 10:09:25;;;;;;;10.10;3.70;;;23.10;44.00;;;;;;5026868;28;20486;-47
2023/05/28 10:12:14;;;;;;;6.10;3.13;;;23.10;43.70;;;;;;5007248;28;20056;-44
2023/05/28 10:14:42;;;;;;;4.72;3.38;;;23.20;43.00;;;;;;5027674;28;20517;-42
2023/05/28 10:17:10;;;;;;;5.50;3.30;;;23.20;42.80;;;;;;5028984;28;20087;-44
2023/05/28 10:19:38;;;;;;;7.53;3.17;;;23.30;42.40;;;;;;5010755;28;20051;-43
2023/05/28 10:22:05;;;;;;;5.63;3.25;;;23.20;42.60;;;;;;5024400;28;20054;-48
2023/05/28 10:24:33;;;;;;;6.35;3.97;;;23.30;43.50;;;;;;5026694;28;20045;-43
2023/05/28 10:27:03;;;;;;;7.28;3.72;;;23.40;42.60;;;;;;5029367;28;20405;-45
2023/05/28 10:29:38;;;;;;;6.05;3.30;;;23.40;43.00;;;;;;5028945;28;20387;-47
2023/05/28 10:32:05;;;;;;;6.68;4.18;;;23.50;42.60;;;;;;5011907;28;20631;-44
2023/05/28 10:34:35;;;;;;;4.28;3.08;;;23.60;42.90;;;;;;5028023;28;20045;-43
2023/05/28 10:37:13;;;;;;;9.13;4.05;;;23.70;41.60;;;;;;5044143;22;20042;-47
2023/05/28 10:39:47;;;;;;;5.30;3.40;;;23.70;41.50;;;;;;4988038;28;20148;-48
2023/05/28 10:42:16;;;;;;;3.83;3.10;;;23.80;41.20;;;;;;4983846;28;20042;-47
2023/05/28 10:45:10;;;;;;;6.57;4.20;;;23.80;41.10;;;;;;4987053;28;20042;-49
2023/05/28 10:47:39;;;;;;;8.10;3.38;;;23.90;41.50;;;;;;4990169;28;20515;-49
2023/05/28 10:50:09;;;;;;;11.15;3.67;;;24.00;40.90;;;;;;4991942;28;20046;-49
2023/05/28 10:52:42;;;;;;;6.53;3.78;;;24.10;40.50;;;;;;4989070;28;20038;-51
2023/05/28 10:55:11;;;;;;;8.40;3.55;;;24.20;40.70;;;;;;4991173;28;20143;-48
2023/05/28 10:57:48;;;;;;;5.60;3.40;;;24.10;40.50;;;;;;4990261;28;20050;-47
2023/05/28 11:00:25;;;;;;;5.63;3.70;;;24.20;41.00;;;;;;4987684;28;20053;-49
2023/05/28 11:02:52;;;;;;;5.47;4.05;;;24.30;40.80;;;;;;4981923;28;20093;-50
2023/05/28 11:05:25;;;;;;;4.95;3.28;;;24.30;39.90;;;;;;4990546;28;20061;-48
2023/05/28 11:07:55;;;;;;;6.68;3.42;;;24.40;39.70;;;;;;4989621;28;20499;-48
2023/05/28 11:10:23;;;;;;;4.47;3.33;;;24.50;40.90;;;;;;4989179;28;20066;-50
2023/05/28 11:12:50;;;;;;;4.53;3.50;;;24.60;39.30;;;;;;4967737;28;20062;-51
2023/05/28 11:15:17;;;;;;;4.20;2.83;;;24.70;38.50;;;;;;4989579;28;20051;-49
2023/05/28 11:17:45;;;;;;;7.20;3.53;;;24.70;38.20;;;;;;4989506;28;20539;-49
2023/05/28 11:20:20;;;;;;;4.80;3.45;;;24.80;38.40;;;;;;4993861;28;20070;-52
2023/05/28 11:22:47;;;;;;;3.97;3.22;;;24.90;37.90;;;;;;4986296;28;20050;-49
2023/05/28 11:25:14;;;;;;;4.97;3.08;;;24.90;38.60;;;;;;4988472;28;20137;-50
2023/05/28 11:27:41;;;;;;;6.10;3.13;;;25.10;38.90;;;;;;4992876;28;20074;-50
2023/05/28 11:30:11;;;;;;;4.50;3.20;;;25.20;39.70;;;;;;4992253;28;20042;-49
2023/05/28 11:32:39;;;;;;;5.40;3.67;;;25.30;38.90;;;;;;4990308;28;20626;-51
2023/05/28 11:35:06;;;;;;;7.32;3.72;;;25.40;38.00;;;;;;4997729;28;20046;-51
2023/05/28 11:37:35;;;;;;;7.43;3.58;;;25.60;38.00;;;;;;4975643;28;20046;-51
2023/05/28 11:40:05;;;;;;;5.22;3.67;;;25.70;38.40;;;;;;4990660;28;20050;-50
2023/05/28 11:42:33;;;;;;;5.20;3.60;;;25.80;38.20;;;;;;4994682;28;20046;-50
2023/05/28 11:45:00;;;;;;;5.38;3.42;;;25.80;37.20;;;;;;4990366;28;20046;-51
2023/05/28 11:47:26;;;;;;;5.20;3.10;;;25.90;37.10;;;;;;4992790;28;20061;-47
2023/05/28 11:49:55;;;;;;;6.75;3.85;;;26.00;37.10;;;;;;4981744;28;20415;-51
2023/05/28 11:52:24;;;;;;;5.60;3.58;;;26.10;36.90;;;;;;4997745;28;20069;-52
2023/05/28 11:54:58;;;;;;;9.50;3.30;;;26.20;36.90;;;;;;4992916;28;20443;-47
2023/05/28 11:57:26;;;;;;;6.25;3.67;;;26.40;36.80;;;;;;4992011;28;20126;-50
2023/05/28 12:00:11;;;;;;;5.93;3.38;;;26.50;36.80;;;;;;4992119;28;20050;-50
2023/05/28 12:02:56;;;;;;;6.82;3.88;;;26.60;36.10;;;;;;4973828;28;20423;-48
2023/05/28 12:05:23;;;;;;;4.63;3.65;;;26.70;36.10;;;;;;4990456;28;20077;-49
2023/05/28 12:07:52;;;;;;;6.68;3.55;;;26.80;37.20;;;;;;4990642;28;20754;-48
2023/05/28 12:10:26;;;;;;;5.65;3.40;;;26.80;37.00;;;;;;4991181;28;20081;-47
2023/05/28 12:12:56;;;;;;;9.45;4.00;;;26.90;37.40;;;;;;4994139;28;20095;-48
2023/05/28 12:15:28;;;;;;;7.90;3.83;;;26.90;37.50;;;;;;4990796;28;20096;-49
2023/05/28 12:18:02;;;;;;;5.40;3.05;;;27.00;38.70;;;;;;4992386;28;20038;-48
2023/05/28 12:20:33;;;;;;;4.10;3.67;;;27.00;37.90;;;;;;4988952;28;20050;-51
2023/05/28 12:23:08;;;;;;;5.33;3.13;;;27.00;37.30;;;;;;4987476;28;20061;-55
2023/05/28 12:25:43;;;;;;;6.68;3.78;;;27.10;37.40;;;;;;4992908;28;20053;-55
2023/05/28 12:28:14;;;;;;;6.13;3.80;;;27.20;36.00;;;;;;4966820;28;20100;-52
2023/05/28 12:30:45;;;;;;;5.72;3.40;;;27.20;36.30;;;;;;4988736;28;20753;-55
2023/05/28 12:33:12;;;;;;;6.80;3.25;;;27.30;36.10;;;;;;4991855;28;20053;-53
2023/05/28 12:35:39;;;;;;;7.78;3.67;;;27.40;35.90;;;;;;4994313;28;20046;-53
2023/05/28 12:38:06;;;;;;;6.97;3.58;;;27.60;36.00;;;;;;4990325;28;20165;-54
2023/05/28 12:40:35;;;;;;;4.57;3.15;;;27.70;36.00;;;;;;4990651;28;20130;-54
2023/05/28 12:43:02;;;;;;;7.35;3.38;;;27.80;35.40;;;;;;4989801;28;20112;-54
2023/05/28 12:45:29;;;;;;;5.65;3.88;;;27.90;35.40;;;;;;4990605;28;20402;-55
2023/05/28 12:47:56;;;;;;;5.78;3.50;;;28.00;34.90;;;;;;4981862;28;20134;-54
2023/05/28 12:50:23;;;;;;;4.70;3.45;;;28.10;35.10;;;;;;4992497;28;20073;-52
2023/05/28 12:52:50;;;;;;;3.88;2.80;;;28.20;35.00;;;;;;4988913;28;20062;-53
2023/05/28 12:55:17;;;;;;;5.97;2.97;;;28.30;34.80;;;;;;4989788;28;20157;-55
2023/05/28 12:57:44;;;;;;;5.63;3.65;;;28.50;34.60;;;;;;4989857;28;20530;-52
2023/05/28 13:00:12;;;;;;;5.65;3.08;;;28.60;34.20;;;;;;4990012;28;20039;-55
2023/05/28 13:02:39;;;;;;;5.35;3.72;;;28.70;34.50;;;;;;4989496;28;20565;-52
2023/05/28 13:05:07;;;;;;;5.03;3.05;;;29.00;33.60;;;;;;4992208;28;20034;-55